sensor_id;sensor_type;location;lat;lon;timestamp;temperature;humidity
13721;DHT22;6932;51.438;5.470;2023-07-31T00:00:32;20.80;99.90
13721;DHT22;6932;51.438;5.470;2023-07-31T00:02:58;20.80;99.90
13721;DHT22;6932;51.438;5.470;2023-07-31T00:05:24;20.80;99.90
13721;DHT22;6932;51.438;5.470;2023-07-31T00:07:49;20.80;99.90
13721;DHT22;6932;51.438;5.470;2023-07-31T00:10:15;20.80;99.90
13721;DHT22;6932;51.438;5.470;2023-07-31T00:12:43;20.80;99.90
13721;DHT22;6932;51.438;5.470;2023-07-31T00:15:10;20.80;99.90
13721;DHT22;6932;51.438;5.470;2023-07-31T00:17:36;20.80;99.90
13721;DHT22;6932;51.438;5.470;2023-07-31T00:20:02;20.80;99.90
13721;DHT22;6932;51.438;5.470;2023-07-31T00:22:29;20.80;99.90
13721;DHT22;6932;51.438;5.470;2023-07-31T00:24:56;20.80;99.90
13721;DHT22;6932;51.438;5.470;2023-07-31T00:27:22;20.80;99.90
13721;DHT22;6932;51.438;5.470;2023-07-31T00:29:48;20.80;99.90
13721;DHT22;6932;51.438;5.470;2023-07-31T00:32:13;20.80;99.90
13721;DHT22;6932;51.438;5.470;2023-07-31T00:34:39;20.80;99.90
13721;DHT22;6932;51.438;5.470;2023-07-31T00:37:05;20.80;99.90
13721;DHT22;6932;51.438;5.470;2023-07-31T00:39:31;20.80;99.90
13721;DHT22;6932;51.438;5.470;2023-07-31T00:41:59;20.80;99.90
13721;DHT22;6932;51.438;5.470;2023-07-31T00:44:25;20.80;99.90
13721;DHT22;6932;51.438;5.470;2023-07-31T00:46:50;20.80;99.90
13721;DHT22;6932;51.438;5.470;2023-07-31T00:49:16;20.80;99.90
13721;DHT22;6932;51.438;5.470;2023-07-31T00:51:42;20.80;99.90
13721;DHT22;6932;51.438;5.470;2023-07-31T00:54:08;20.80;99.90
13721;DHT22;6932;51.438;5.470;2023-07-31T00:56:34;20.80;99.90
13721;DHT22;6932;51.438;5.470;2023-07-31T00:59:00;20.80;99.90
13721;DHT22;6932;51.438;5.470;2023-07-31T01:01:27;20.80;99.90
13721;DHT22;6932;51.438;5.470;2023-07-31T01:03:53;20.80;99.90
13721;DHT22;6932;51.438;5.470;2023-07-31T01:06:40;20.80;99.90
13721;DHT22;6932;51.438;5.470;2023-07-31T01:12:23;20.70;99.90
13721;DHT22;6932;51.438;5.470;2023-07-31T01:15:06;20.70;99.90
13721;DHT22;6932;51.438;5.470;2023-07-31T01:17:37;20.70;99.90
13721;DHT22;6932;51.438;5.470;2023-07-31T01:20:14;20.70;99.90
13721;DHT22;6932;51.438;5.470;2023-07-31T01:28:27;20.70;99.90
13721;DHT22;6932;51.438;5.470;2023-07-31T01:31:18;20.70;99.90
13721;DHT22;6932;51.438;5.470;2023-07-31T01:33:47;20.70;99.90
13721;DHT22;6932;51.438;5.470;2023-07-31T01:36:14;20.70;99.90
13721;DHT22;6932;51.438;5.470;2023-07-31T01:38:39;20.70;99.90
13721;DHT22;6932;51.438;5.470;2023-07-31T01:41:05;20.70;99.90
13721;DHT22;6932;51.438;5.470;2023-07-31T01:43:31;20.70;99.90
13721;DHT22;6932;51.438;5.470;2023-07-31T01:45:56;20.70;99.90
13721;DHT22;6932;51.438;5.470;2023-07-31T01:48:22;20.70;99.90
13721;DHT22;6932;51.438;5.470;2023-07-31T01:50:48;20.70;99.90
13721;DHT22;6932;51.438;5.470;2023-07-31T01:53:13;20.60;99.90
13721;DHT22;6932;51.438;5.470;2023-07-31T01:55:40;20.60;99.90
13721;DHT22;6932;51.438;5.470;2023-07-31T01:58:05;20.60;99.90
13721;DHT22;6932;51.438;5.470;2023-07-31T02:00:31;20.60;99.90
13721;DHT22;6932;51.438;5.470;2023-07-31T02:02:57;20.60;99.90
13721;DHT22;6932;51.438;5.470;2023-07-31T02:05:22;20.60;99.90
13721;DHT22;6932;51.438;5.470;2023-07-31T02:07:48;20.60;99.90
13721;DHT22;6932;51.438;5.470;2023-07-31T02:10:14;20.60;99.90
13721;DHT22;6932;51.438;5.470;2023-07-31T02:12:41;20.60;99.90
13721;DHT22;6932;51.438;5.470;2023-07-31T02:15:07;20.60;99.90
13721;DHT22;6932;51.438;5.470;2023-07-31T02:17:33;20.60;99.90
13721;DHT22;6932;51.438;5.470;2023-07-31T02:19:58;20.60;99.90
13721;DHT22;6932;51.438;5.470;2023-07-31T02:22:25;20.60;99.90
13721;DHT22;6932;51.438;5.470;2023-07-31T02:24:51;20.60;99.90
13721;DHT22;6932;51.438;5.470;2023-07-31T02:27:16;20.60;99.90
13721;DHT22;6932;51.438;5.470;2023-07-31T02:29:42;20.50;99.90
13721;DHT22;6932;51.438;5.470;2023-07-31T02:32:08;20.60;99.90
13721;DHT22;6932;51.438;5.470;2023-07-31T02:34:33;20.60;99.90
13721;DHT22;6932;51.438;5.470;2023-07-31T02:36:59;20.60;99.90
13721;DHT22;6932;51.438;5.470;2023-07-31T02:39:25;20.60;99.90
13721;DHT22;6932;51.438;5.470;2023-07-31T02:41:51;20.50;99.90
13721;DHT22;6932;51.438;5.470;2023-07-31T02:44:16;20.50;99.90
13721;DHT22;6932;51.438;5.470;2023-07-31T02:46:42;20.60;99.90
13721;DHT22;6932;51.438;5.470;2023-07-31T02:49:08;20.50;99.90
13721;DHT22;6932;51.438;5.470;2023-07-31T02:51:34;20.60;99.90
13721;DHT22;6932;51.438;5.470;2023-07-31T02:53:59;20.50;99.90
13721;DHT22;6932;51.438;5.470;2023-07-31T02:56:25;20.60;99.90
13721;DHT22;6932;51.438;5.470;2023-07-31T02:58:51;20.60;99.90
13721;DHT22;6932;51.438;5.470;2023-07-31T03:01:16;20.60;99.90
13721;DHT22;6932;51.438;5.470;2023-07-31T03:03:42;20.60;99.90
13721;DHT22;6932;51.438;5.470;2023-07-31T03:06:08;20.60;99.90
13721;DHT22;6932;51.438;5.470;2023-07-31T03:08:33;20.60;99.90
13721;DHT22;6932;51.438;5.470;2023-07-31T03:10:59;20.60;99.90
13721;DHT22;6932;51.438;5.470;2023-07-31T03:13:25;20.60;99.90
13721;DHT22;6932;51.438;5.470;2023-07-31T03:15:50;20.60;99.90
13721;DHT22;6932;51.438;5.470;2023-07-31T03:18:16;20.60;99.90
13721;DHT22;6932;51.438;5.470;2023-07-31T03:20:43;20.60;99.90
13721;DHT22;6932;51.438;5.470;2023-07-31T03:23:09;20.60;99.90
13721;DHT22;6932;51.438;5.470;2023-07-31T03:25:35;20.60;99.90
13721;DHT22;6932;51.438;5.470;2023-07-31T03:28:01;20.60;99.90
13721;DHT22;6932;51.438;5.470;2023-07-31T03:30:27;20.60;99.90
13721;DHT22;6932;51.438;5.470;2023-07-31T03:32:52;20.60;99.90
13721;DHT22;6932;51.438;5.470;2023-07-31T03:35:18;20.70;99.90
13721;DHT22;6932;51.438;5.470;2023-07-31T03:37:44;20.70;99.90
13721;DHT22;6932;51.438;5.470;2023-07-31T03:40:10;20.70;99.90
13721;DHT22;6932;51.438;5.470;2023-07-31T03:42:36;20.70;99.90
13721;DHT22;6932;51.438;5.470;2023-07-31T03:45:02;20.70;99.90
13721;DHT22;6932;51.438;5.470;2023-07-31T03:47:28;20.70;99.90
13721;DHT22;6932;51.438;5.470;2023-07-31T03:49:54;20.70;99.90
13721;DHT22;6932;51.438;5.470;2023-07-31T03:52:20;20.70;99.90
13721;DHT22;6932;51.438;5.470;2023-07-31T03:54:46;20.70;99.90
13721;DHT22;6932;51.438;5.470;2023-07-31T03:57:11;20.70;99.90
13721;DHT22;6932;51.438;5.470;2023-07-31T03:59:37;20.70;99.90
13721;DHT22;6932;51.438;5.470;2023-07-31T04:02:05;20.70;99.90
13721;DHT22;6932;51.438;5.470;2023-07-31T04:04:31;20.70;99.90
13721;DHT22;6932;51.438;5.470;2023-07-31T04:06:57;20.70;99.90
13721;DHT22;6932;51.438;5.470;2023-07-31T04:09:22;20.70;99.90
13721;DHT22;6932;51.438;5.470;2023-07-31T04:11:48;20.70;99.90
13721;DHT22;6932;51.438;5.470;2023-07-31T04:14:14;20.80;99.90
13721;DHT22;6932;51.438;5.470;2023-07-31T04:16:39;20.80;99.90
13721;DHT22;6932;51.438;5.470;2023-07-31T04:19:05;20.80;99.90
13721;DHT22;6932;51.438;5.470;2023-07-31T04:21:31;20.80;99.90
13721;DHT22;6932;51.438;5.470;2023-07-31T04:23:57;20.80;99.90
13721;DHT22;6932;51.438;5.470;2023-07-31T04:26:23;20.80;99.90
13721;DHT22;6932;51.438;5.470;2023-07-31T04:28:49;20.80;99.90
13721;DHT22;6932;51.438;5.470;2023-07-31T04:31:15;20.80;99.90
13721;DHT22;6932;51.438;5.470;2023-07-31T04:33:40;20.80;99.90
13721;DHT22;6932;51.438;5.470;2023-07-31T04:36:06;20.80;99.90
13721;DHT22;6932;51.438;5.470;2023-07-31T04:38:32;20.80;99.90
13721;DHT22;6932;51.438;5.470;2023-07-31T04:40:57;20.80;99.90
13721;DHT22;6932;51.438;5.470;2023-07-31T04:43:23;20.80;99.90
13721;DHT22;6932;51.438;5.470;2023-07-31T04:45:49;20.90;99.90
13721;DHT22;6932;51.438;5.470;2023-07-31T04:48:15;20.80;99.90
13721;DHT22;6932;51.438;5.470;2023-07-31T04:50:41;20.80;99.90
13721;DHT22;6932;51.438;5.470;2023-07-31T04:53:07;20.80;99.90
13721;DHT22;6932;51.438;5.470;2023-07-31T04:55:33;20.90;99.90
13721;DHT22;6932;51.438;5.470;2023-07-31T04:57:59;20.90;99.90
13721;DHT22;6932;51.438;5.470;2023-07-31T05:00:25;20.90;99.90
13721;DHT22;6932;51.438;5.470;2023-07-31T05:02:50;20.80;99.90
13721;DHT22;6932;51.438;5.470;2023-07-31T05:05:16;20.90;99.90
13721;DHT22;6932;51.438;5.470;2023-07-31T05:07:42;20.90;99.90
13721;DHT22;6932;51.438;5.470;2023-07-31T05:10:09;20.90;99.90
13721;DHT22;6932;51.438;5.470;2023-07-31T05:12:34;20.90;99.90
13721;DHT22;6932;51.438;5.470;2023-07-31T05:15:00;20.90;99.90
13721;DHT22;6932;51.438;5.470;2023-07-31T05:17:26;20.90;99.90
13721;DHT22;6932;51.438;5.470;2023-07-31T05:19:51;20.80;99.90
13721;DHT22;6932;51.438;5.470;2023-07-31T05:22:17;20.80;99.90
13721;DHT22;6932;51.438;5.470;2023-07-31T05:24:43;20.90;99.90
13721;DHT22;6932;51.438;5.470;2023-07-31T05:27:08;20.90;99.90
13721;DHT22;6932;51.438;5.470;2023-07-31T05:29:35;20.80;99.90
13721;DHT22;6932;51.438;5.470;2023-07-31T05:32:01;20.80;99.90
13721;DHT22;6932;51.438;5.470;2023-07-31T05:34:27;20.80;99.90
13721;DHT22;6932;51.438;5.470;2023-07-31T05:36:53;20.80;99.90
13721;DHT22;6932;51.438;5.470;2023-07-31T05:39:19;20.80;99.90
13721;DHT22;6932;51.438;5.470;2023-07-31T05:41:45;20.80;99.90
13721;DHT22;6932;51.438;5.470;2023-07-31T05:44:11;20.80;99.90
13721;DHT22;6932;51.438;5.470;2023-07-31T05:46:36;20.80;99.90
13721;DHT22;6932;51.438;5.470;2023-07-31T05:49:02;20.80;99.90
13721;DHT22;6932;51.438;5.470;2023-07-31T05:51:28;20.80;99.90
13721;DHT22;6932;51.438;5.470;2023-07-31T05:53:54;20.80;99.90
13721;DHT22;6932;51.438;5.470;2023-07-31T05:56:19;20.70;99.90
13721;DHT22;6932;51.438;5.470;2023-07-31T05:58:45;20.80;99.90
13721;DHT22;6932;51.438;5.470;2023-07-31T06:01:11;20.80;99.90
13721;DHT22;6932;51.438;5.470;2023-07-31T06:03:37;20.70;99.90
13721;DHT22;6932;51.438;5.470;2023-07-31T06:06:02;20.70;99.90
13721;DHT22;6932;51.438;5.470;2023-07-31T06:08:28;20.70;99.90
13721;DHT22;6932;51.438;5.470;2023-07-31T06:10:54;20.70;99.90
13721;DHT22;6932;51.438;5.470;2023-07-31T06:13:20;20.70;99.90
13721;DHT22;6932;51.438;5.470;2023-07-31T06:15:45;20.60;99.90
13721;DHT22;6932;51.438;5.470;2023-07-31T06:18:11;20.60;99.90
13721;DHT22;6932;51.438;5.470;2023-07-31T06:20:37;20.60;99.90
13721;DHT22;6932;51.438;5.470;2023-07-31T06:23:05;20.60;99.90
13721;DHT22;6932;51.438;5.470;2023-07-31T06:25:31;20.50;99.90
13721;DHT22;6932;51.438;5.470;2023-07-31T06:27:57;20.50;99.90
13721;DHT22;6932;51.438;5.470;2023-07-31T06:30:23;20.50;99.90
13721;DHT22;6932;51.438;5.470;2023-07-31T06:32:48;20.50;99.90
13721;DHT22;6932;51.438;5.470;2023-07-31T06:35:14;20.50;99.90
13721;DHT22;6932;51.438;5.470;2023-07-31T06:37:40;20.50;99.90
13721;DHT22;6932;51.438;5.470;2023-07-31T06:40:09;20.50;99.90
13721;DHT22;6932;51.438;5.470;2023-07-31T06:42:35;20.40;99.90
13721;DHT22;6932;51.438;5.470;2023-07-31T06:45:02;20.50;99.90
13721;DHT22;6932;51.438;5.470;2023-07-31T06:47:28;20.50;99.90
13721;DHT22;6932;51.438;5.470;2023-07-31T06:49:53;20.40;99.90
13721;DHT22;6932;51.438;5.470;2023-07-31T06:52:19;20.40;99.90
13721;DHT22;6932;51.438;5.470;2023-07-31T06:55:00;20.50;99.90
13721;DHT22;6932;51.438;5.470;2023-07-31T06:57:43;20.40;99.90
13721;DHT22;6932;51.438;5.470;2023-07-31T07:00:10;20.50;99.90
13721;DHT22;6932;51.438;5.470;2023-07-31T07:02:36;20.40;99.90
13721;DHT22;6932;51.438;5.470;2023-07-31T07:05:01;20.40;99.90
13721;DHT22;6932;51.438;5.470;2023-07-31T07:07:27;20.40;99.90
13721;DHT22;6932;51.438;5.470;2023-07-31T07:09:53;20.40;99.90
13721;DHT22;6932;51.438;5.470;2023-07-31T07:12:19;20.40;99.90
13721;DHT22;6932;51.438;5.470;2023-07-31T07:14:45;20.50;99.90
13721;DHT22;6932;51.438;5.470;2023-07-31T07:17:13;20.40;99.90
13721;DHT22;6932;51.438;5.470;2023-07-31T07:19:40;20.50;99.90
13721;DHT22;6932;51.438;5.470;2023-07-31T07:22:07;20.50;99.90
13721;DHT22;6932;51.438;5.470;2023-07-31T07:24:33;20.50;99.90
13721;DHT22;6932;51.438;5.470;2023-07-31T07:26:58;20.50;99.90
13721;DHT22;6932;51.438;5.470;2023-07-31T07:29:24;20.50;99.90
13721;DHT22;6932;51.438;5.470;2023-07-31T07:31:50;20.40;99.90
13721;DHT22;6932;51.438;5.470;2023-07-31T07:34:16;20.40;99.90
13721;DHT22;6932;51.438;5.470;2023-07-31T07:36:41;20.40;99.90
13721;DHT22;6932;51.438;5.470;2023-07-31T07:39:09;20.40;99.90
13721;DHT22;6932;51.438;5.470;2023-07-31T07:41:35;20.40;99.90
13721;DHT22;6932;51.438;5.470;2023-07-31T07:44:01;20.40;99.90
13721;DHT22;6932;51.438;5.470;2023-07-31T07:46:26;20.40;99.90
13721;DHT22;6932;51.438;5.470;2023-07-31T07:48:52;20.40;99.90
13721;DHT22;6932;51.438;5.470;2023-07-31T07:51:18;20.40;99.90
13721;DHT22;6932;51.438;5.470;2023-07-31T07:53:44;20.50;99.90
13721;DHT22;6932;51.438;5.470;2023-07-31T07:56:09;20.40;99.90
13721;DHT22;6932;51.438;5.470;2023-07-31T07:58:35;20.40;99.90
13721;DHT22;6932;51.438;5.470;2023-07-31T08:01:01;20.50;99.90
13721;DHT22;6932;51.438;5.470;2023-07-31T08:03:27;20.40;99.90
13721;DHT22;6932;51.438;5.470;2023-07-31T08:05:52;20.50;99.90
13721;DHT22;6932;51.438;5.470;2023-07-31T08:08:23;20.50;99.90
13721;DHT22;6932;51.438;5.470;2023-07-31T08:10:49;20.50;99.90
13721;DHT22;6932;51.438;5.470;2023-07-31T08:13:14;20.40;99.90
13721;DHT22;6932;51.438;5.470;2023-07-31T08:15:43;20.40;99.90
13721;DHT22;6932;51.438;5.470;2023-07-31T08:18:10;20.50;99.90
13721;DHT22;6932;51.438;5.470;2023-07-31T08:20:37;20.50;99.90
13721;DHT22;6932;51.438;5.470;2023-07-31T08:23:03;20.50;99.90
13721;DHT22;6932;51.438;5.470;2023-07-31T08:25:29;20.50;99.90
13721;DHT22;6932;51.438;5.470;2023-07-31T08:27:55;20.50;99.90
13721;DHT22;6932;51.438;5.470;2023-07-31T08:30:21;20.50;99.90
13721;DHT22;6932;51.438;5.470;2023-07-31T08:32:47;20.50;99.90
13721;DHT22;6932;51.438;5.470;2023-07-31T08:35:13;20.50;99.90
13721;DHT22;6932;51.438;5.470;2023-07-31T08:37:39;20.50;99.90
13721;DHT22;6932;51.438;5.470;2023-07-31T08:40:05;20.60;99.90
13721;DHT22;6932;51.438;5.470;2023-07-31T08:42:32;20.60;99.90
13721;DHT22;6932;51.438;5.470;2023-07-31T08:44:59;20.50;99.90
13721;DHT22;6932;51.438;5.470;2023-07-31T08:47:27;20.60;99.90
13721;DHT22;6932;51.438;5.470;2023-07-31T08:49:54;20.60;99.90
13721;DHT22;6932;51.438;5.470;2023-07-31T08:52:21;20.60;99.90
13721;DHT22;6932;51.438;5.470;2023-07-31T08:54:47;20.50;99.90
13721;DHT22;6932;51.438;5.470;2023-07-31T08:57:13;20.60;99.90
13721;DHT22;6932;51.438;5.470;2023-07-31T08:59:40;20.60;99.90
13721;DHT22;6932;51.438;5.470;2023-07-31T09:02:08;20.60;99.90
13721;DHT22;6932;51.438;5.470;2023-07-31T09:04:34;20.60;99.90
13721;DHT22;6932;51.438;5.470;2023-07-31T09:07:02;20.60;99.90
13721;DHT22;6932;51.438;5.470;2023-07-31T09:09:30;20.60;99.90
13721;DHT22;6932;51.438;5.470;2023-07-31T09:11:58;20.70;99.90
13721;DHT22;6932;51.438;5.470;2023-07-31T09:14:25;20.70;99.90
13721;DHT22;6932;51.438;5.470;2023-07-31T09:16:53;20.70;99.90
13721;DHT22;6932;51.438;5.470;2023-07-31T09:19:27;20.70;99.90
13721;DHT22;6932;51.438;5.470;2023-07-31T09:21:54;20.70;99.90
13721;DHT22;6932;51.438;5.470;2023-07-31T09:24:31;20.70;99.90
13721;DHT22;6932;51.438;5.470;2023-07-31T09:27:00;20.80;99.90
13721;DHT22;6932;51.438;5.470;2023-07-31T09:29:28;20.80;99.90
13721;DHT22;6932;51.438;5.470;2023-07-31T09:31:55;20.90;99.90
13721;DHT22;6932;51.438;5.470;2023-07-31T09:34:29;20.90;99.90
13721;DHT22;6932;51.438;5.470;2023-07-31T09:37:00;20.90;99.90
13721;DHT22;6932;51.438;5.470;2023-07-31T09:39:27;21.00;99.90
13721;DHT22;6932;51.438;5.470;2023-07-31T09:41:55;21.00;99.90
13721;DHT22;6932;51.438;5.470;2023-07-31T09:44:30;21.00;99.90
13721;DHT22;6932;51.438;5.470;2023-07-31T09:47:04;21.00;99.90
13721;DHT22;6932;51.438;5.470;2023-07-31T09:49:30;21.10;99.90
13721;DHT22;6932;51.438;5.470;2023-07-31T09:51:55;21.10;99.90
13721;DHT22;6932;51.438;5.470;2023-07-31T09:54:21;21.10;99.90
13721;DHT22;6932;51.438;5.470;2023-07-31T09:56:48;21.10;99.90
13721;DHT22;6932;51.438;5.470;2023-07-31T09:59:16;21.20;99.90
13721;DHT22;6932;51.438;5.470;2023-07-31T10:01:45;21.20;99.90
13721;DHT22;6932;51.438;5.470;2023-07-31T10:04:13;21.20;99.90
13721;DHT22;6932;51.438;5.470;2023-07-31T10:06:41;21.20;99.90
13721;DHT22;6932;51.438;5.470;2023-07-31T10:09:12;21.30;99.90
13721;DHT22;6932;51.438;5.470;2023-07-31T10:11:47;21.30;99.90
13721;DHT22;6932;51.438;5.470;2023-07-31T10:14:21;21.30;99.90
13721;DHT22;6932;51.438;5.470;2023-07-31T10:16:51;21.30;99.90
13721;DHT22;6932;51.438;5.470;2023-07-31T10:19:19;21.30;99.90
13721;DHT22;6932;51.438;5.470;2023-07-31T10:21:46;21.30;99.90
13721;DHT22;6932;51.438;5.470;2023-07-31T10:24:15;21.30;99.90
13721;DHT22;6932;51.438;5.470;2023-07-31T10:26:45;21.40;99.90
13721;DHT22;6932;51.438;5.470;2023-07-31T10:29:15;21.40;99.90
13721;DHT22;6932;51.438;5.470;2023-07-31T10:31:43;21.40;99.90
13721;DHT22;6932;51.438;5.470;2023-07-31T10:34:10;21.40;99.90
13721;DHT22;6932;51.438;5.470;2023-07-31T10:36:36;21.40;99.90
13721;DHT22;6932;51.438;5.470;2023-07-31T10:39:04;21.40;99.90
13721;DHT22;6932;51.438;5.470;2023-07-31T10:41:49;21.50;99.90
13721;DHT22;6932;51.438;5.470;2023-07-31T10:44:17;21.50;99.90
13721;DHT22;6932;51.438;5.470;2023-07-31T10:46:45;21.50;99.90
13721;DHT22;6932;51.438;5.470;2023-07-31T10:49:20;21.60;99.90
13721;DHT22;6932;51.438;5.470;2023-07-31T10:51:47;21.60;99.90
13721;DHT22;6932;51.438;5.470;2023-07-31T10:54:14;21.60;99.90
13721;DHT22;6932;51.438;5.470;2023-07-31T10:56:46;21.60;99.90
13721;DHT22;6932;51.438;5.470;2023-07-31T10:59:15;21.60;99.90
13721;DHT22;6932;51.438;5.470;2023-07-31T11:01:55;21.70;99.90
13721;DHT22;6932;51.438;5.470;2023-07-31T11:04:29;21.70;99.90
13721;DHT22;6932;51.438;5.470;2023-07-31T11:07:01;21.80;99.90
13721;DHT22;6932;51.438;5.470;2023-07-31T11:09:30;21.80;99.90
13721;DHT22;6932;51.438;5.470;2023-07-31T11:11:59;21.80;99.90
13721;DHT22;6932;51.438;5.470;2023-07-31T11:14:26;21.90;99.90
13721;DHT22;6932;51.438;5.470;2023-07-31T11:16:52;21.90;99.90
13721;DHT22;6932;51.438;5.470;2023-07-31T11:19:24;21.90;99.90
13721;DHT22;6932;51.438;5.470;2023-07-31T11:21:52;21.90;99.90
13721;DHT22;6932;51.438;5.470;2023-07-31T11:24:18;21.90;99.90
13721;DHT22;6932;51.438;5.470;2023-07-31T11:26:52;22.00;99.90
13721;DHT22;6932;51.438;5.470;2023-07-31T11:29:19;22.00;99.90
13721;DHT22;6932;51.438;5.470;2023-07-31T11:31:47;22.00;99.90
13721;DHT22;6932;51.438;5.470;2023-07-31T11:34:14;22.00;99.90
13721;DHT22;6932;51.438;5.470;2023-07-31T11:36:40;22.10;99.90
13721;DHT22;6932;51.438;5.470;2023-07-31T11:39:08;22.10;99.90
13721;DHT22;6932;51.438;5.470;2023-07-31T11:41:35;22.20;99.90
13721;DHT22;6932;51.438;5.470;2023-07-31T11:44:01;22.20;99.90
13721;DHT22;6932;51.438;5.470;2023-07-31T11:46:30;22.20;99.90
13721;DHT22;6932;51.438;5.470;2023-07-31T11:49:00;22.20;99.90
13721;DHT22;6932;51.438;5.470;2023-07-31T11:51:27;22.20;99.90
13721;DHT22;6932;51.438;5.470;2023-07-31T11:53:57;22.20;99.90
13721;DHT22;6932;51.438;5.470;2023-07-31T11:56:25;22.20;99.90
13721;DHT22;6932;51.438;5.470;2023-07-31T11:58:58;22.20;99.90
13721;DHT22;6932;51.438;5.470;2023-07-31T12:01:26;22.10;99.90
13721;DHT22;6932;51.438;5.470;2023-07-31T12:03:54;22.10;99.90
13721;DHT22;6932;51.438;5.470;2023-07-31T12:06:20;22.00;99.90
13721;DHT22;6932;51.438;5.470;2023-07-31T12:08:47;22.00;99.90
13721;DHT22;6932;51.438;5.470;2023-07-31T12:11:14;22.00;99.90
13721;DHT22;6932;51.438;5.470;2023-07-31T12:13:40;22.00;99.90
13721;DHT22;6932;51.438;5.470;2023-07-31T12:16:06;22.00;99.90
13721;DHT22;6932;51.438;5.470;2023-07-31T12:18:37;22.00;99.90
13721;DHT22;6932;51.438;5.470;2023-07-31T12:21:08;22.00;99.90
13721;DHT22;6932;51.438;5.470;2023-07-31T12:23:35;22.00;99.90
13721;DHT22;6932;51.438;5.470;2023-07-31T12:26:07;22.00;99.90
13721;DHT22;6932;51.438;5.470;2023-07-31T12:31:05;22.00;99.90
13721;DHT22;6932;51.438;5.470;2023-07-31T12:33:35;22.10;99.90
13721;DHT22;6932;51.438;5.470;2023-07-31T12:36:04;22.10;99.90
13721;DHT22;6932;51.438;5.470;2023-07-31T12:38:41;22.10;99.90
13721;DHT22;6932;51.438;5.470;2023-07-31T12:41:07;22.10;99.90
13721;DHT22;6932;51.438;5.470;2023-07-31T12:43:38;22.20;99.90
13721;DHT22;6932;51.438;5.470;2023-07-31T12:46:06;22.20;99.90
13721;DHT22;6932;51.438;5.470;2023-07-31T12:48:35;22.20;99.90
13721;DHT22;6932;51.438;5.470;2023-07-31T12:51:04;22.20;99.90
13721;DHT22;6932;51.438;5.470;2023-07-31T12:53:32;22.20;99.90
13721;DHT22;6932;51.438;5.470;2023-07-31T12:55:58;22.20;99.90
13721;DHT22;6932;51.438;5.470;2023-07-31T12:58:24;22.30;99.90
13721;DHT22;6932;51.438;5.470;2023-07-31T13:00:51;22.30;99.90
13721;DHT22;6932;51.438;5.470;2023-07-31T13:03:16;22.30;99.90
13721;DHT22;6932;51.438;5.470;2023-07-31T13:05:42;22.40;99.90
13721;DHT22;6932;51.438;5.470;2023-07-31T13:08:08;22.40;99.90
13721;DHT22;6932;51.438;5.470;2023-07-31T13:10:34;22.40;99.90
13721;DHT22;6932;51.438;5.470;2023-07-31T13:12:59;22.40;99.90
13721;DHT22;6932;51.438;5.470;2023-07-31T13:15:25;22.50;99.90
13721;DHT22;6932;51.438;5.470;2023-07-31T13:17:51;22.50;99.90
13721;DHT22;6932;51.438;5.470;2023-07-31T13:20:16;22.50;99.90
13721;DHT22;6932;51.438;5.470;2023-07-31T13:22:42;22.50;99.90
13721;DHT22;6932;51.438;5.470;2023-07-31T13:25:08;22.50;99.90
13721;DHT22;6932;51.438;5.470;2023-07-31T13:27:35;22.60;99.90
13721;DHT22;6932;51.438;5.470;2023-07-31T13:30:01;22.60;99.90
13721;DHT22;6932;51.438;5.470;2023-07-31T13:32:27;22.60;99.90
13721;DHT22;6932;51.438;5.470;2023-07-31T13:34:53;22.60;99.90
13721;DHT22;6932;51.438;5.470;2023-07-31T13:37:19;22.60;99.90
13721;DHT22;6932;51.438;5.470;2023-07-31T13:39:44;22.60;99.90
13721;DHT22;6932;51.438;5.470;2023-07-31T13:42:10;22.60;99.90
13721;DHT22;6932;51.438;5.470;2023-07-31T13:44:38;22.60;99.90
13721;DHT22;6932;51.438;5.470;2023-07-31T13:47:05;22.60;99.90
13721;DHT22;6932;51.438;5.470;2023-07-31T13:49:31;22.60;99.90
13721;DHT22;6932;51.438;5.470;2023-07-31T13:51:57;22.60;99.90
13721;DHT22;6932;51.438;5.470;2023-07-31T13:54:24;22.60;99.90
13721;DHT22;6932;51.438;5.470;2023-07-31T13:56:51;22.50;99.90
13721;DHT22;6932;51.438;5.470;2023-07-31T13:59:17;22.50;99.90
13721;DHT22;6932;51.438;5.470;2023-07-31T14:01:44;22.50;99.90
13721;DHT22;6932;51.438;5.470;2023-07-31T14:04:10;22.50;99.90
13721;DHT22;6932;51.438;5.470;2023-07-31T14:06:36;22.50;99.90
13721;DHT22;6932;51.438;5.470;2023-07-31T14:09:02;22.50;99.90
13721;DHT22;6932;51.438;5.470;2023-07-31T14:11:30;22.40;99.90
13721;DHT22;6932;51.438;5.470;2023-07-31T14:13:56;22.40;99.90
13721;DHT22;6932;51.438;5.470;2023-07-31T14:16:23;22.40;99.90
13721;DHT22;6932;51.438;5.470;2023-07-31T14:18:48;22.40;99.90
13721;DHT22;6932;51.438;5.470;2023-07-31T14:21:15;22.30;99.90
13721;DHT22;6932;51.438;5.470;2023-07-31T14:23:41;22.30;99.90
13721;DHT22;6932;51.438;5.470;2023-07-31T14:26:07;22.30;99.90
13721;DHT22;6932;51.438;5.470;2023-07-31T14:28:33;22.30;99.90
13721;DHT22;6932;51.438;5.470;2023-07-31T14:30:59;22.30;99.90
13721;DHT22;6932;51.438;5.470;2023-07-31T14:33:24;22.30;99.90
13721;DHT22;6932;51.438;5.470;2023-07-31T14:35:50;22.30;99.90
13721;DHT22;6932;51.438;5.470;2023-07-31T14:38:16;22.30;99.90
13721;DHT22;6932;51.438;5.470;2023-07-31T14:40:42;22.30;99.90
13721;DHT22;6932;51.438;5.470;2023-07-31T14:43:08;22.30;99.90
13721;DHT22;6932;51.438;5.470;2023-07-31T14:45:34;22.30;99.90
13721;DHT22;6932;51.438;5.470;2023-07-31T14:48:00;22.30;99.90
13721;DHT22;6932;51.438;5.470;2023-07-31T14:50:26;22.30;99.90
13721;DHT22;6932;51.438;5.470;2023-07-31T14:52:52;22.30;99.90
13721;DHT22;6932;51.438;5.470;2023-07-31T14:55:18;22.20;99.90
13721;DHT22;6932;51.438;5.470;2023-07-31T14:57:44;22.20;99.90
13721;DHT22;6932;51.438;5.470;2023-07-31T15:00:10;22.20;99.90
13721;DHT22;6932;51.438;5.470;2023-07-31T15:02:37;22.20;99.90
13721;DHT22;6932;51.438;5.470;2023-07-31T15:05:04;22.20;99.90
13721;DHT22;6932;51.438;5.470;2023-07-31T15:07:30;22.10;99.90
13721;DHT22;6932;51.438;5.470;2023-07-31T15:09:57;22.10;99.90
13721;DHT22;6932;51.438;5.470;2023-07-31T15:12:23;22.10;99.90
13721;DHT22;6932;51.438;5.470;2023-07-31T15:14:49;22.00;99.90
13721;DHT22;6932;51.438;5.470;2023-07-31T15:17:15;22.00;99.90
13721;DHT22;6932;51.438;5.470;2023-07-31T15:19:41;22.00;99.90
13721;DHT22;6932;51.438;5.470;2023-07-31T15:22:07;22.00;99.90
13721;DHT22;6932;51.438;5.470;2023-07-31T15:24:33;22.00;99.90
13721;DHT22;6932;51.438;5.470;2023-07-31T15:26:59;22.00;99.90
13721;DHT22;6932;51.438;5.470;2023-07-31T15:29:27;21.90;99.90
13721;DHT22;6932;51.438;5.470;2023-07-31T15:31:53;21.90;99.90
13721;DHT22;6932;51.438;5.470;2023-07-31T15:34:18;21.90;99.90
13721;DHT22;6932;51.438;5.470;2023-07-31T15:36:44;21.90;99.90
13721;DHT22;6932;51.438;5.470;2023-07-31T15:39:10;21.80;99.90
13721;DHT22;6932;51.438;5.470;2023-07-31T15:41:39;21.90;99.90
13721;DHT22;6932;51.438;5.470;2023-07-31T15:44:06;21.80;99.90
13721;DHT22;6932;51.438;5.470;2023-07-31T15:46:32;21.80;99.90
13721;DHT22;6932;51.438;5.470;2023-07-31T15:48:58;21.80;99.90
13721;DHT22;6932;51.438;5.470;2023-07-31T15:51:24;21.70;99.90
13721;DHT22;6932;51.438;5.470;2023-07-31T15:53:50;21.80;99.90